Alto, Georgia
Current Conditions -  °F | °C
As of 4:55 PM on Sunday 23 Nov 2014 (Local Time) from KTOC Reporting Station
Light Rain Light Rain  
Wind Chill: 50°   Ceiling: 400
Heat Index: 50°   Visibility: 5mi
Dew Point: 50°   Wind: 10mph
Humidity: 99%   Direction: 80°E
Pressure: 29.8"   Gusts: NA
Location:  34.47°N, 83.57°W
Report Text: KTOC 232155Z AUTO 08009KT 5SM -RA BKN004 BKN008 OVC012 10/10 A2980 RMK AO2 T01020101
Loading
Personal Weather Stations






























Interactive Weather Map New forecast layout! Learn more

10-Day Weather Forecast

Advertisements
Track Severe Weather on mobile